createdAt,value
2022-08-25T00:00:41.928Z,96065.13
2022-08-25T00:05:46.741Z,96059.44
2022-08-25T00:10:57.742Z,96059.81
2022-08-25T00:16:06.549Z,96047.13
2022-08-25T00:21:09.959Z,96060.50
2022-08-25T00:26:15.684Z,96077.53
2022-08-25T00:31:21.288Z,96080.59
2022-08-25T00:36:24.187Z,96081.22
2022-08-25T00:41:28.593Z,96094.03
2022-08-25T00:46:34.761Z,96086.25
2022-08-25T00:51:40.751Z,96089.59
2022-08-25T00:56:45.818Z,96084.56
2022-08-25T01:01:49.528Z,96096.44
2022-08-25T01:06:52.945Z,96083.09
2022-08-25T01:11:57.198Z,96076.16
2022-08-25T01:17:00.306Z,96075.69
2022-08-25T01:22:05.872Z,96081.38
2022-08-25T01:27:09.377Z,96067.34
2022-08-25T01:32:14.229Z,96055.13
2022-08-25T01:37:19.169Z,96080.50
2022-08-25T01:42:35.257Z,96076.75
2022-08-25T01:47:38.660Z,96086.13
2022-08-25T01:52:52.684Z,96090.72
2022-08-25T01:57:55.693Z,96092.47
2022-08-25T02:02:58.618Z,96097.56
2022-08-25T02:08:02.949Z,96093.56
2022-08-25T02:13:06.351Z,96077.91
2022-08-25T02:18:11.786Z,96080.91
2022-08-25T02:23:16.037Z,96062.38
2022-08-25T02:28:18.877Z,96058.94
2022-08-25T02:33:22.275Z,96068.75
2022-08-25T02:38:27.977Z,96062.69
2022-08-25T02:43:30.757Z,96064.78
2022-08-25T02:48:33.595Z,96066.78
2022-08-25T02:53:39.727Z,96074.22
2022-08-25T02:58:44.216Z,96065.06
2022-08-25T03:03:48.671Z,96078.50
2022-08-25T03:08:53.167Z,96073.88
2022-08-25T03:13:56.384Z,96064.22
2022-08-25T03:18:59.645Z,96058.16
2022-08-25T03:24:05.194Z,96056.22
2022-08-25T03:29:08.229Z,96063.06
2022-08-25T03:34:11.070Z,96060.97
2022-08-25T03:39:16.077Z,96056.84
2022-08-25T03:44:20.260Z,96047.28
2022-08-25T03:49:24.817Z,96045.72
2022-08-25T03:54:29.015Z,96051.88
2022-08-25T03:59:31.843Z,96061.06
2022-08-25T04:04:35.682Z,96062.69
2022-08-25T04:09:39.841Z,96055.44
2022-08-25T04:14:42.744Z,96061.41
2022-08-25T04:19:45.546Z,96054.44
2022-08-25T04:24:49.828Z,96044.16
2022-08-25T04:29:52.634Z,96040.16
2022-08-25T04:34:55.444Z,96041.34
2022-08-25T04:39:59.611Z,96053.13
2022-08-25T04:45:04.096Z,96048.97
2022-08-25T04:50:08.124Z,96043.31
2022-08-25T04:55:12.301Z,96054.00
2022-08-25T05:00:16.699Z,96052.56
2022-08-25T05:05:19.609Z,96052.69
2022-08-25T05:10:24.188Z,96044.78
2022-08-25T05:15:46.562Z,96050.22
2022-08-25T05:20:49.898Z,96042.16
2022-08-25T05:25:54.090Z,96042.00
2022-08-25T05:30:59.742Z,96057.78
2022-08-25T05:36:03.011Z,96056.78
2022-08-25T05:41:09.803Z,96051.69
2022-08-25T05:46:13.994Z,96058.84
2022-08-25T05:51:17.901Z,96062.22
2022-08-25T05:56:22.570Z,96051.53
2022-08-25T06:01:45.881Z,96057.78
2022-08-25T06:06:48.794Z,96052.31
2022-08-25T06:11:55.210Z,96042.34
2022-08-25T06:16:58.737Z,96046.13
2022-08-25T06:22:01.682Z,96044.72
2022-08-25T06:27:06.165Z,96055.06
2022-08-25T06:32:08.958Z,96054.34
2022-08-25T06:37:11.768Z,96051.75
2022-08-25T06:42:16.099Z,96048.72
2022-08-25T06:47:19.830Z,96045.91
2022-08-25T06:52:22.810Z,96049.94
2022-08-25T06:57:35.738Z,96061.41
2022-08-25T07:02:39.488Z,96057.19
2022-08-25T07:07:44.390Z,96064.91
2022-08-25T07:12:48.564Z,96063.75
2022-08-25T07:17:51.433Z,96060.34
2022-08-25T07:22:54.200Z,96067.16
2022-08-25T07:27:59.098Z,96065.66
2022-08-25T07:33:05.866Z,96059.59
2022-08-25T07:38:12.577Z,96052.75
2022-08-25T07:43:17.813Z,96048.69
2022-08-25T07:48:20.739Z,96045.84
2022-08-25T07:53:23.544Z,96050.94
2022-08-25T07:58:27.752Z,96040.97
2022-08-25T08:03:45.079Z,96048.09
2022-08-25T08:08:57.869Z,96046.19
2022-08-25T08:14:03.927Z,96055.31
2022-08-25T08:19:07.016Z,96064.41
2022-08-25T08:24:24.771Z,96059.53
2022-08-25T08:29:34.247Z,96058.25
2022-08-25T08:34:38.232Z,96046.31
2022-08-25T08:39:41.317Z,96061.25
2022-08-25T08:44:58.043Z,96048.34
2022-08-25T08:50:07.253Z,96045.53
2022-08-25T08:55:20.398Z,96045.47
2022-08-25T09:00:25.542Z,96036.81
2022-08-25T09:05:30.619Z,96037.50
2022-08-25T09:10:58.604Z,96042.75
2022-08-25T09:16:33.969Z,96031.09
2022-08-25T09:21:43.917Z,96044.25
2022-08-25T09:26:55.102Z,96042.69
2022-08-25T09:32:03.619Z,96043.34
2022-08-25T09:37:06.604Z,96044.34
2022-08-25T09:42:10.850Z,96034.09
2022-08-25T09:47:23.157Z,96031.25
2022-08-25T09:52:41.187Z,96026.22
2022-08-25T09:57:49.188Z,96014.78
2022-08-25T10:03:07.026Z,96011.69
2022-08-25T10:08:16.298Z,96006.22
2022-08-25T10:13:23.662Z,95991.41
2022-08-25T10:18:30.762Z,95976.34
2022-08-25T10:23:38.375Z,95976.06
2022-08-25T10:28:51.989Z,95973.75
2022-08-25T10:34:10.884Z,95964.34
2022-08-25T10:39:36.366Z,95955.81
2022-08-25T10:45:11.395Z,95948.13
2022-08-25T10:50:25.786Z,95942.72
2022-08-25T10:55:35.965Z,95940.13
2022-08-25T11:00:50.030Z,95937.72
2022-08-25T11:06:01.501Z,95933.50
2022-08-25T11:11:10.537Z,95928.88
2022-08-25T11:16:18.880Z,95925.41
2022-08-25T11:21:28.577Z,95923.31
2022-08-25T11:26:37.206Z,95911.16
2022-08-25T11:31:48.352Z,95914.53
2022-08-25T11:37:01.267Z,95897.91
2022-08-25T11:42:18.330Z,95889.69
2022-08-25T11:47:42.056Z,95885.19
2022-08-25T11:52:55.912Z,95881.72
2022-08-25T11:58:30.667Z,95875.16
2022-08-25T12:03:54.853Z,95875.31
2022-08-25T12:09:19.549Z,95873.38
2022-08-25T12:14:43.872Z,95863.88
2022-08-25T12:19:51.992Z,95865.28
2022-08-25T12:25:06.915Z,95847.16
2022-08-25T12:30:20.799Z,95841.84
2022-08-25T12:35:33.101Z,95840.78
2022-08-25T12:40:40.685Z,95841.34
2022-08-25T12:45:46.185Z,95841.88
2022-08-25T12:50:57.714Z,95830.03
2022-08-25T12:56:06.826Z,95820.13
2022-08-25T13:01:32.798Z,95812.84
2022-08-25T13:06:53.793Z,95807.94
2022-08-25T13:12:07.602Z,95809.94
2022-08-25T13:17:10.793Z,95805.88
2022-08-25T13:22:17.605Z,95796.84
2022-08-25T13:27:25.457Z,95794.84
2022-08-25T13:32:32.342Z,95785.56
2022-08-25T13:37:38.455Z,95775.59
2022-08-25T13:42:49.728Z,95776.34
2022-08-25T13:47:56.340Z,95769.56
2022-08-25T13:53:02.775Z,95766.41
2022-08-25T13:58:14.614Z,95769.53
2022-08-25T14:03:33.318Z,95761.06
2022-08-25T14:08:38.449Z,95760.44
2022-08-25T14:13:44.443Z,95760.16
2022-08-25T14:18:49.942Z,95752.59
2022-08-25T14:23:54.236Z,95755.69
2022-08-25T14:28:58.389Z,95748.03
2022-08-25T14:34:03.816Z,95749.34
2022-08-25T14:39:08.603Z,95753.31
2022-08-25T14:44:15.056Z,95749.19
2022-08-25T14:49:24.983Z,95750.56
2022-08-25T14:54:29.039Z,95749.53
2022-08-25T14:59:33.421Z,95746.25
2022-08-25T15:04:38.063Z,95736.22
2022-08-25T15:09:42.946Z,95729.75
2022-08-25T15:14:47.106Z,95732.25
2022-08-25T15:19:49.914Z,95725.84
2022-08-25T15:24:52.713Z,95719.94
2022-08-25T15:29:56.945Z,95715.47
2022-08-25T15:35:00.349Z,95710.81
2022-08-25T15:40:03.492Z,95706.66
2022-08-25T15:45:12.549Z,95706.97
2022-08-25T15:50:21.986Z,95707.91
2022-08-25T15:55:28.360Z,95703.72
2022-08-25T16:00:33.039Z,95708.59
2022-08-25T16:05:37.308Z,95705.25
2022-08-25T16:10:42.355Z,95698.97
2022-08-25T16:15:53.199Z,95699.91
2022-08-25T16:20:57.321Z,95691.66
2022-08-25T16:26:00.987Z,95696.41
2022-08-25T16:31:07.418Z,95691.13
2022-08-25T16:36:13.722Z,95691.13
2022-08-25T16:41:19.407Z,95700.25
2022-08-25T16:46:23.878Z,95701.56
2022-08-25T16:51:29.651Z,95698.78
2022-08-25T16:56:37.210Z,95701.56
2022-08-25T17:01:43.147Z,95697.28
2022-08-25T17:06:49.398Z,95706.88
2022-08-25T17:11:56.911Z,95707.00
2022-08-25T17:17:01.225Z,95711.00
2022-08-25T17:22:04.033Z,95713.50
2022-08-25T17:27:09.491Z,95709.53
2022-08-25T17:32:13.683Z,95706.59
2022-08-25T17:37:17.177Z,95702.88
2022-08-25T17:42:20.880Z,95697.88
2022-08-25T17:47:25.189Z,95695.50
2022-08-25T17:52:28.011Z,95693.13
2022-08-25T17:57:30.837Z,95685.53
2022-08-25T18:02:35.137Z,95689.84
2022-08-25T18:07:37.981Z,95698.09
2022-08-25T18:12:40.822Z,95698.84
2022-08-25T18:17:47.813Z,95708.59
2022-08-25T18:22:51.369Z,95711.88
2022-08-25T18:27:54.909Z,95717.78
2022-08-25T18:33:00.063Z,95719.44
2022-08-25T18:38:21.227Z,95710.34
2022-08-25T18:43:24.122Z,95731.53
2022-08-25T18:48:29.004Z,95737.16
2022-08-25T18:53:49.778Z,95748.13
2022-08-25T18:58:53.597Z,95748.41
2022-08-25T19:03:58.143Z,95746.25
2022-08-25T19:09:02.143Z,95759.09
2022-08-25T19:14:12.073Z,95757.97
2022-08-25T19:19:16.515Z,95757.91
2022-08-25T19:24:19.717Z,95768.03
2022-08-25T19:29:23.478Z,95765.63
2022-08-25T19:34:30.670Z,95774.97
2022-08-25T19:39:35.958Z,95772.25
2022-08-25T19:44:42.529Z,95787.75
2022-08-25T19:49:47.732Z,95793.03
2022-08-25T19:54:52.746Z,95783.31
2022-08-25T19:59:55.970Z,95781.38
2022-08-25T20:05:00.870Z,95799.53
2022-08-25T20:10:05.807Z,95798.69
2022-08-25T20:15:10.436Z,95807.59
2022-08-25T20:20:18.002Z,95799.06
2022-08-25T20:25:25.177Z,95808.69
2022-08-25T20:30:31.004Z,95813.16
2022-08-25T20:35:35.194Z,95811.53
2022-08-25T20:40:40.708Z,95815.78
2022-08-25T20:45:46.388Z,95821.06
2022-08-25T20:50:57.366Z,95819.38
2022-08-25T20:56:00.677Z,95827.03
2022-08-25T21:01:03.558Z,95834.72
2022-08-25T21:06:09.417Z,95826.84
2022-08-25T21:11:13.133Z,95837.84
2022-08-25T21:16:17.850Z,95828.69
2022-08-25T21:21:23.853Z,95839.06
2022-08-25T21:26:30.568Z,95834.88
2022-08-25T21:31:33.785Z,95833.13
2022-08-25T21:36:37.970Z,95837.75
2022-08-25T21:41:43.014Z,95836.41
2022-08-25T21:46:54.111Z,95843.63
2022-08-25T21:52:00.993Z,95838.69
2022-08-25T21:57:06.824Z,95843.50
2022-08-25T22:02:13.105Z,95838.63
2022-08-25T22:07:17.432Z,95834.31
2022-08-25T22:12:20.460Z,95837.88
2022-08-25T22:17:24.511Z,95833.38
2022-08-25T22:22:29.034Z,95833.44
2022-08-25T22:27:31.875Z,95837.41
2022-08-25T22:32:34.854Z,95834.50
2022-08-25T22:37:39.027Z,95836.78
2022-08-25T22:42:47.801Z,95829.97
2022-08-25T22:47:52.195Z,95837.25
2022-08-25T22:52:57.571Z,95830.09
2022-08-25T22:58:01.030Z,95827.50
2022-08-25T23:03:03.903Z,95830.66
2022-08-25T23:08:10.961Z,95824.09
2022-08-25T23:13:30.984Z,95838.88
2022-08-25T23:18:40.546Z,95835.41
2022-08-25T23:23:47.950Z,95834.97
2022-08-25T23:28:52.279Z,95835.38
2022-08-25T23:33:55.142Z,95831.19
2022-08-25T23:38:59.331Z,95827.16
2022-08-25T23:44:01.937Z,95829.34
2022-08-25T23:49:09.263Z,95821.03
2022-08-25T23:54:13.911Z,95839.06
2022-08-25T23:59:17.070Z,95827.94
